sensor_id;sensor_type;location;lat;lon;timestamp;P1;durP1;ratioP1;P2;durP2;ratioP2
51467;SDS011;37545;45.302;-122.946;2022-08-19T00:01:27;5.90;;;2.33;;
51467;SDS011;37545;45.302;-122.946;2022-08-19T00:03:57;12.73;;;3.70;;
51467;SDS011;37545;45.302;-122.946;2022-08-19T00:06:26;5.97;;;3.00;;
51467;SDS011;37545;45.302;-122.946;2022-08-19T00:08:55;8.82;;;2.60;;
51467;SDS011;37545;45.302;-122.946;2022-08-19T00:11:25;8.95;;;3.10;;
51467;SDS011;37545;45.302;-122.946;2022-08-19T00:13:54;5.38;;;3.65;;
51467;SDS011;37545;45.302;-122.946;2022-08-19T00:16:34;7.60;;;3.67;;
51467;SDS011;37545;45.302;-122.946;2022-08-19T00:19:16;7.90;;;3.03;;
51467;SDS011;37545;45.302;-122.946;2022-08-19T00:21:44;7.25;;;3.25;;
51467;SDS011;37545;45.302;-122.946;2022-08-19T00:24:13;6.25;;;3.00;;
51467;SDS011;37545;45.302;-122.946;2022-08-19T00:26:42;8.75;;;3.08;;
51467;SDS011;37545;45.302;-122.946;2022-08-19T00:29:12;13.43;;;3.08;;
51467;SDS011;37545;45.302;-122.946;2022-08-19T00:31:43;7.57;;;2.92;;
51467;SDS011;37545;45.302;-122.946;2022-08-19T00:34:13;7.43;;;3.30;;
51467;SDS011;37545;45.302;-122.946;2022-08-19T00:36:42;7.45;;;2.97;;
51467;SDS011;37545;45.302;-122.946;2022-08-19T00:39:11;7.05;;;3.00;;
51467;SDS011;37545;45.302;-122.946;2022-08-19T00:41:41;17.30;;;3.67;;
51467;SDS011;37545;45.302;-122.946;2022-08-19T00:44:12;8.00;;;3.35;;
51467;SDS011;37545;45.302;-122.946;2022-08-19T00:46:47;5.72;;;2.80;;
51467;SDS011;37545;45.302;-122.946;2022-08-19T00:49:18;7.80;;;3.05;;
51467;SDS011;37545;45.302;-122.946;2022-08-19T00:51:51;8.23;;;3.35;;
51467;SDS011;37545;45.302;-122.946;2022-08-19T00:54:22;8.80;;;3.20;;
51467;SDS011;37545;45.302;-122.946;2022-08-19T00:56:51;8.65;;;3.10;;
51467;SDS011;37545;45.302;-122.946;2022-08-19T00:59:22;13.47;;;3.30;;
51467;SDS011;37545;45.302;-122.946;2022-08-19T01:01:54;9.88;;;3.58;;
51467;SDS011;37545;45.302;-122.946;2022-08-19T01:04:22;8.85;;;3.17;;
51467;SDS011;37545;45.302;-122.946;2022-08-19T01:06:51;7.05;;;3.08;;
51467;SDS011;37545;45.302;-122.946;2022-08-19T01:09:19;6.97;;;3.42;;
51467;SDS011;37545;45.302;-122.946;2022-08-19T01:11:48;16.48;;;3.22;;
51467;SDS011;37545;45.302;-122.946;2022-08-19T01:14:17;11.90;;;3.22;;
51467;SDS011;37545;45.302;-122.946;2022-08-19T01:16:46;9.35;;;2.90;;
51467;SDS011;37545;45.302;-122.946;2022-08-19T01:19:18;9.95;;;3.53;;
51467;SDS011;37545;45.302;-122.946;2022-08-19T01:21:55;8.13;;;2.97;;
51467;SDS011;37545;45.302;-122.946;2022-08-19T01:24:30;11.90;;;3.90;;
51467;SDS011;37545;45.302;-122.946;2022-08-19T01:26:58;9.52;;;2.97;;
51467;SDS011;37545;45.302;-122.946;2022-08-19T01:29:27;14.88;;;3.30;;
51467;SDS011;37545;45.302;-122.946;2022-08-19T01:31:55;8.00;;;3.20;;
51467;SDS011;37545;45.302;-122.946;2022-08-19T01:34:25;9.68;;;3.85;;
51467;SDS011;37545;45.302;-122.946;2022-08-19T01:36:54;7.03;;;3.22;;
51467;SDS011;37545;45.302;-122.946;2022-08-19T01:39:23;6.47;;;2.90;;
51467;SDS011;37545;45.302;-122.946;2022-08-19T01:41:53;11.13;;;4.40;;
51467;SDS011;37545;45.302;-122.946;2022-08-19T01:44:22;10.65;;;3.60;;
51467;SDS011;37545;45.302;-122.946;2022-08-19T01:46:51;9.95;;;3.85;;
51467;SDS011;37545;45.302;-122.946;2022-08-19T01:49:20;12.18;;;3.58;;
51467;SDS011;37545;45.302;-122.946;2022-08-19T01:51:50;22.67;;;3.72;;
51467;SDS011;37545;45.302;-122.946;2022-08-19T01:54:26;12.88;;;3.53;;
51467;SDS011;37545;45.302;-122.946;2022-08-19T01:56:57;7.60;;;3.53;;
51467;SDS011;37545;45.302;-122.946;2022-08-19T01:59:28;7.80;;;3.38;;
51467;SDS011;37545;45.302;-122.946;2022-08-19T02:01:58;12.98;;;4.13;;
51467;SDS011;37545;45.302;-122.946;2022-08-19T02:04:26;8.77;;;3.42;;
51467;SDS011;37545;45.302;-122.946;2022-08-19T02:06:55;7.03;;;3.15;;
51467;SDS011;37545;45.302;-122.946;2022-08-19T02:09:25;9.57;;;4.45;;
51467;SDS011;37545;45.302;-122.946;2022-08-19T02:11:54;9.25;;;3.67;;
51467;SDS011;37545;45.302;-122.946;2022-08-19T02:14:24;8.70;;;3.33;;
51467;SDS011;37545;45.302;-122.946;2022-08-19T02:16:52;7.10;;;3.70;;
51467;SDS011;37545;45.302;-122.946;2022-08-19T02:19:21;8.15;;;3.08;;
51467;SDS011;37545;45.302;-122.946;2022-08-19T02:21:49;6.63;;;3.35;;
51467;SDS011;37545;45.302;-122.946;2022-08-19T02:24:18;8.90;;;3.95;;
51467;SDS011;37545;45.302;-122.946;2022-08-19T02:26:47;7.95;;;3.40;;
51467;SDS011;37545;45.302;-122.946;2022-08-19T02:29:15;10.38;;;3.75;;
51467;SDS011;37545;45.302;-122.946;2022-08-19T02:31:46;7.70;;;3.10;;
51467;SDS011;37545;45.302;-122.946;2022-08-19T02:34:14;9.27;;;3.00;;
51467;SDS011;37545;45.302;-122.946;2022-08-19T02:36:43;5.75;;;3.45;;
51467;SDS011;37545;45.302;-122.946;2022-08-19T02:39:12;6.20;;;3.30;;
51467;SDS011;37545;45.302;-122.946;2022-08-19T02:41:39;8.07;;;3.15;;
51467;SDS011;37545;45.302;-122.946;2022-08-19T02:44:07;8.82;;;3.40;;
51467;SDS011;37545;45.302;-122.946;2022-08-19T02:46:36;10.55;;;3.50;;
51467;SDS011;37545;45.302;-122.946;2022-08-19T02:49:07;5.57;;;3.20;;
51467;SDS011;37545;45.302;-122.946;2022-08-19T02:51:36;9.57;;;3.40;;
51467;SDS011;37545;45.302;-122.946;2022-08-19T02:54:06;7.60;;;4.32;;
51467;SDS011;37545;45.302;-122.946;2022-08-19T02:56:36;8.80;;;3.28;;
51467;SDS011;37545;45.302;-122.946;2022-08-19T02:59:06;7.78;;;2.97;;
51467;SDS011;37545;45.302;-122.946;2022-08-19T03:01:36;9.23;;;3.58;;
51467;SDS011;37545;45.302;-122.946;2022-08-19T03:04:08;7.28;;;3.42;;
51467;SDS011;37545;45.302;-122.946;2022-08-19T03:06:38;6.10;;;3.45;;
51467;SDS011;37545;45.302;-122.946;2022-08-19T03:09:08;7.53;;;3.33;;
51467;SDS011;37545;45.302;-122.946;2022-08-19T03:11:37;8.57;;;3.30;;
51467;SDS011;37545;45.302;-122.946;2022-08-19T03:14:07;6.38;;;3.40;;
51467;SDS011;37545;45.302;-122.946;2022-08-19T03:16:40;6.25;;;3.42;;
51467;SDS011;37545;45.302;-122.946;2022-08-19T03:19:12;7.80;;;3.38;;
51467;SDS011;37545;45.302;-122.946;2022-08-19T03:21:41;9.70;;;3.35;;
51467;SDS011;37545;45.302;-122.946;2022-08-19T03:24:12;5.55;;;3.35;;
51467;SDS011;37545;45.302;-122.946;2022-08-19T03:26:43;11.15;;;4.30;;
51467;SDS011;37545;45.302;-122.946;2022-08-19T03:29:19;9.00;;;3.67;;
51467;SDS011;37545;45.302;-122.946;2022-08-19T03:31:48;10.50;;;3.55;;
51467;SDS011;37545;45.302;-122.946;2022-08-19T03:34:19;6.53;;;3.50;;
51467;SDS011;37545;45.302;-122.946;2022-08-19T03:36:52;8.18;;;3.60;;
51467;SDS011;37545;45.302;-122.946;2022-08-19T03:39:21;10.00;;;3.50;;
51467;SDS011;37545;45.302;-122.946;2022-08-19T03:41:51;8.85;;;3.40;;
51467;SDS011;37545;45.302;-122.946;2022-08-19T03:44:23;9.65;;;3.60;;
51467;SDS011;37545;45.302;-122.946;2022-08-19T03:46:53;10.00;;;3.60;;
51467;SDS011;37545;45.302;-122.946;2022-08-19T03:49:24;8.57;;;3.55;;
51467;SDS011;37545;45.302;-122.946;2022-08-19T03:51:55;6.85;;;3.33;;
51467;SDS011;37545;45.302;-122.946;2022-08-19T03:54:25;10.43;;;3.78;;
51467;SDS011;37545;45.302;-122.946;2022-08-19T03:56:54;12.70;;;3.50;;
51467;SDS011;37545;45.302;-122.946;2022-08-19T03:59:24;7.38;;;4.15;;
51467;SDS011;37545;45.302;-122.946;2022-08-19T04:01:56;7.05;;;3.58;;
51467;SDS011;37545;45.302;-122.946;2022-08-19T04:04:28;11.35;;;3.72;;
51467;SDS011;37545;45.302;-122.946;2022-08-19T04:06:56;10.13;;;3.95;;
51467;SDS011;37545;45.302;-122.946;2022-08-19T04:09:25;7.95;;;3.35;;
51467;SDS011;37545;45.302;-122.946;2022-08-19T04:11:56;9.65;;;3.80;;
51467;SDS011;37545;45.302;-122.946;2022-08-19T04:14:26;9.32;;;3.55;;
51467;SDS011;37545;45.302;-122.946;2022-08-19T04:16:57;10.80;;;3.42;;
51467;SDS011;37545;45.302;-122.946;2022-08-19T04:19:28;7.13;;;3.88;;
51467;SDS011;37545;45.302;-122.946;2022-08-19T04:21:57;11.25;;;3.17;;
51467;SDS011;37545;45.302;-122.946;2022-08-19T04:24:26;6.07;;;3.45;;
51467;SDS011;37545;45.302;-122.946;2022-08-19T04:26:55;9.40;;;3.95;;
51467;SDS011;37545;45.302;-122.946;2022-08-19T04:29:24;7.15;;;3.20;;
51467;SDS011;37545;45.302;-122.946;2022-08-19T04:31:53;6.88;;;3.50;;
51467;SDS011;37545;45.302;-122.946;2022-08-19T04:34:23;5.90;;;3.80;;
51467;SDS011;37545;45.302;-122.946;2022-08-19T04:36:55;9.75;;;3.80;;
51467;SDS011;37545;45.302;-122.946;2022-08-19T04:39:26;9.15;;;3.50;;
51467;SDS011;37545;45.302;-122.946;2022-08-19T04:42:09;11.32;;;4.13;;
51467;SDS011;37545;45.302;-122.946;2022-08-19T04:44:58;6.53;;;3.60;;
51467;SDS011;37545;45.302;-122.946;2022-08-19T04:47:28;8.18;;;3.88;;
51467;SDS011;37545;45.302;-122.946;2022-08-19T04:49:58;9.88;;;4.43;;
51467;SDS011;37545;45.302;-122.946;2022-08-19T04:52:28;7.57;;;3.92;;
51467;SDS011;37545;45.302;-122.946;2022-08-19T04:55:03;5.78;;;3.30;;
51467;SDS011;37545;45.302;-122.946;2022-08-19T04:57:32;8.75;;;3.50;;
51467;SDS011;37545;45.302;-122.946;2022-08-19T05:00:02;8.25;;;3.78;;
51467;SDS011;37545;45.302;-122.946;2022-08-19T05:02:35;6.75;;;3.80;;
51467;SDS011;37545;45.302;-122.946;2022-08-19T05:05:04;5.82;;;3.45;;
51467;SDS011;37545;45.302;-122.946;2022-08-19T05:07:35;7.50;;;3.42;;
51467;SDS011;37545;45.302;-122.946;2022-08-19T05:10:06;11.25;;;3.80;;
51467;SDS011;37545;45.302;-122.946;2022-08-19T05:12:35;8.98;;;4.20;;
51467;SDS011;37545;45.302;-122.946;2022-08-19T05:15:04;8.70;;;3.50;;
51467;SDS011;37545;45.302;-122.946;2022-08-19T05:17:34;8.05;;;3.53;;
51467;SDS011;37545;45.302;-122.946;2022-08-19T05:20:03;6.20;;;3.38;;
51467;SDS011;37545;45.302;-122.946;2022-08-19T05:22:54;13.30;;;4.40;;
51467;SDS011;37545;45.302;-122.946;2022-08-19T05:25:22;11.45;;;4.30;;
51467;SDS011;37545;45.302;-122.946;2022-08-19T05:27:54;7.55;;;3.33;;
51467;SDS011;37545;45.302;-122.946;2022-08-19T05:30:26;7.88;;;3.05;;
51467;SDS011;37545;45.302;-122.946;2022-08-19T05:32:54;6.60;;;3.58;;
51467;SDS011;37545;45.302;-122.946;2022-08-19T05:35:25;6.78;;;3.80;;
51467;SDS011;37545;45.302;-122.946;2022-08-19T05:38:01;10.20;;;3.97;;
51467;SDS011;37545;45.302;-122.946;2022-08-19T05:40:30;7.20;;;3.40;;
51467;SDS011;37545;45.302;-122.946;2022-08-19T05:42:58;6.00;;;3.75;;
51467;SDS011;37545;45.302;-122.946;2022-08-19T05:45:27;4.90;;;3.50;;
51467;SDS011;37545;45.302;-122.946;2022-08-19T05:47:58;7.35;;;3.65;;
51467;SDS011;37545;45.302;-122.946;2022-08-19T05:50:27;8.57;;;3.33;;
51467;SDS011;37545;45.302;-122.946;2022-08-19T05:52:56;5.95;;;3.20;;
51467;SDS011;37545;45.302;-122.946;2022-08-19T05:55:26;7.82;;;3.10;;
51467;SDS011;37545;45.302;-122.946;2022-08-19T05:57:54;3.88;;;2.78;;
51467;SDS011;37545;45.302;-122.946;2022-08-19T06:00:23;7.05;;;3.65;;
51467;SDS011;37545;45.302;-122.946;2022-08-19T06:02:51;7.18;;;4.30;;
51467;SDS011;37545;45.302;-122.946;2022-08-19T06:05:22;9.77;;;3.10;;
51467;SDS011;37545;45.302;-122.946;2022-08-19T06:07:50;5.00;;;2.15;;
51467;SDS011;37545;45.302;-122.946;2022-08-19T06:10:19;6.35;;;2.70;;
51467;SDS011;37545;45.302;-122.946;2022-08-19T06:12:49;6.85;;;2.53;;
51467;SDS011;37545;45.302;-122.946;2022-08-19T06:15:17;5.43;;;2.40;;
51467;SDS011;37545;45.302;-122.946;2022-08-19T06:20:17;3.53;;;2.10;;
51467;SDS011;37545;45.302;-122.946;2022-08-19T06:22:47;2.40;;;2.00;;
51467;SDS011;37545;45.302;-122.946;2022-08-19T06:25:17;9.23;;;2.10;;
51467;SDS011;37545;45.302;-122.946;2022-08-19T06:27:46;3.45;;;2.42;;
51467;SDS011;37545;45.302;-122.946;2022-08-19T06:30:16;3.92;;;2.67;;
51467;SDS011;37545;45.302;-122.946;2022-08-19T06:32:44;6.05;;;2.40;;
51467;SDS011;37545;45.302;-122.946;2022-08-19T06:35:13;4.75;;;1.92;;
51467;SDS011;37545;45.302;-122.946;2022-08-19T06:37:42;4.53;;;2.30;;
51467;SDS011;37545;45.302;-122.946;2022-08-19T06:40:10;5.63;;;2.28;;
51467;SDS011;37545;45.302;-122.946;2022-08-19T06:42:39;7.10;;;2.90;;
51467;SDS011;37545;45.302;-122.946;2022-08-19T06:45:08;6.53;;;2.15;;
51467;SDS011;37545;45.302;-122.946;2022-08-19T06:47:38;3.33;;;1.90;;
51467;SDS011;37545;45.302;-122.946;2022-08-19T06:50:12;4.68;;;2.00;;
51467;SDS011;37545;45.302;-122.946;2022-08-19T06:52:41;3.63;;;2.00;;
51467;SDS011;37545;45.302;-122.946;2022-08-19T06:55:09;7.43;;;2.55;;
51467;SDS011;37545;45.302;-122.946;2022-08-19T06:57:38;3.47;;;1.95;;
51467;SDS011;37545;45.302;-122.946;2022-08-19T07:00:08;4.93;;;2.00;;
51467;SDS011;37545;45.302;-122.946;2022-08-19T07:02:41;5.80;;;2.33;;
51467;SDS011;37545;45.302;-122.946;2022-08-19T07:05:09;4.63;;;1.90;;
51467;SDS011;37545;45.302;-122.946;2022-08-19T07:07:38;4.30;;;1.83;;
51467;SDS011;37545;45.302;-122.946;2022-08-19T07:10:08;3.72;;;2.05;;
51467;SDS011;37545;45.302;-122.946;2022-08-19T07:12:37;6.30;;;2.20;;
51467;SDS011;37545;45.302;-122.946;2022-08-19T07:15:06;2.67;;;1.60;;
51467;SDS011;37545;45.302;-122.946;2022-08-19T07:17:36;3.38;;;1.58;;
51467;SDS011;37545;45.302;-122.946;2022-08-19T07:20:08;3.00;;;1.40;;
51467;SDS011;37545;45.302;-122.946;2022-08-19T07:22:37;2.95;;;1.83;;
51467;SDS011;37545;45.302;-122.946;2022-08-19T07:25:07;4.78;;;1.73;;
51467;SDS011;37545;45.302;-122.946;2022-08-19T07:27:36;2.97;;;1.45;;
51467;SDS011;37545;45.302;-122.946;2022-08-19T07:30:05;3.75;;;1.77;;
51467;SDS011;37545;45.302;-122.946;2022-08-19T07:32:37;3.15;;;1.70;;
51467;SDS011;37545;45.302;-122.946;2022-08-19T07:35:08;4.75;;;1.70;;
51467;SDS011;37545;45.302;-122.946;2022-08-19T07:37:37;4.03;;;1.52;;
51467;SDS011;37545;45.302;-122.946;2022-08-19T07:40:10;3.38;;;1.30;;
51467;SDS011;37545;45.302;-122.946;2022-08-19T07:42:39;2.92;;;1.40;;
51467;SDS011;37545;45.302;-122.946;2022-08-19T07:45:08;3.72;;;1.38;;
51467;SDS011;37545;45.302;-122.946;2022-08-19T07:47:37;5.68;;;1.45;;
51467;SDS011;37545;45.302;-122.946;2022-08-19T07:50:08;3.13;;;1.50;;
51467;SDS011;37545;45.302;-122.946;2022-08-19T07:52:38;2.70;;;1.63;;
51467;SDS011;37545;45.302;-122.946;2022-08-19T07:55:09;2.63;;;1.67;;
51467;SDS011;37545;45.302;-122.946;2022-08-19T07:57:38;2.40;;;1.48;;
51467;SDS011;37545;45.302;-122.946;2022-08-19T08:00:06;2.47;;;1.20;;
51467;SDS011;37545;45.302;-122.946;2022-08-19T08:02:35;1.73;;;1.35;;
51467;SDS011;37545;45.302;-122.946;2022-08-19T08:05:04;1.67;;;1.20;;
51467;SDS011;37545;45.302;-122.946;2022-08-19T08:07:52;3.25;;;1.40;;
51467;SDS011;37545;45.302;-122.946;2022-08-19T08:10:37;2.40;;;1.40;;
51467;SDS011;37545;45.302;-122.946;2022-08-19T08:13:05;2.28;;;1.30;;
51467;SDS011;37545;45.302;-122.946;2022-08-19T08:15:34;3.85;;;1.40;;
51467;SDS011;37545;45.302;-122.946;2022-08-19T08:18:04;2.88;;;1.52;;
51467;SDS011;37545;45.302;-122.946;2022-08-19T08:20:34;5.40;;;1.88;;
51467;SDS011;37545;45.302;-122.946;2022-08-19T08:23:03;3.20;;;1.60;;
51467;SDS011;37545;45.302;-122.946;2022-08-19T08:25:54;2.05;;;1.77;;
51467;SDS011;37545;45.302;-122.946;2022-08-19T08:28:24;4.30;;;1.63;;
51467;SDS011;37545;45.302;-122.946;2022-08-19T08:30:55;3.03;;;1.27;;
51467;SDS011;37545;45.302;-122.946;2022-08-19T08:33:24;4.00;;;1.25;;
51467;SDS011;37545;45.302;-122.946;2022-08-19T08:35:57;3.70;;;1.38;;
51467;SDS011;37545;45.302;-122.946;2022-08-19T08:38:26;3.08;;;1.30;;
51467;SDS011;37545;45.302;-122.946;2022-08-19T08:40:56;4.80;;;1.40;;
51467;SDS011;37545;45.302;-122.946;2022-08-19T08:43:32;4.15;;;1.38;;
51467;SDS011;37545;45.302;-122.946;2022-08-19T08:46:03;1.88;;;1.08;;
51467;SDS011;37545;45.302;-122.946;2022-08-19T08:48:36;1.63;;;1.10;;
51467;SDS011;37545;45.302;-122.946;2022-08-19T08:51:14;2.38;;;1.20;;
51467;SDS011;37545;45.302;-122.946;2022-08-19T08:53:47;1.83;;;1.15;;
51467;SDS011;37545;45.302;-122.946;2022-08-19T08:56:18;2.42;;;1.08;;
51467;SDS011;37545;45.302;-122.946;2022-08-19T08:58:49;3.22;;;1.63;;
51467;SDS011;37545;45.302;-122.946;2022-08-19T09:01:24;3.17;;;1.10;;
51467;SDS011;37545;45.302;-122.946;2022-08-19T09:03:53;2.30;;;1.40;;
51467;SDS011;37545;45.302;-122.946;2022-08-19T09:06:25;1.42;;;1.10;;
51467;SDS011;37545;45.302;-122.946;2022-08-19T09:09:02;4.45;;;1.30;;
51467;SDS011;37545;45.302;-122.946;2022-08-19T09:11:48;1.58;;;1.20;;
51467;SDS011;37545;45.302;-122.946;2022-08-19T09:14:30;2.40;;;1.20;;
51467;SDS011;37545;45.302;-122.946;2022-08-19T09:17:03;5.30;;;1.33;;
51467;SDS011;37545;45.302;-122.946;2022-08-19T09:19:33;4.85;;;1.15;;
51467;SDS011;37545;45.302;-122.946;2022-08-19T09:22:04;1.23;;;0.90;;
51467;SDS011;37545;45.302;-122.946;2022-08-19T09:24:33;1.88;;;0.90;;
51467;SDS011;37545;45.302;-122.946;2022-08-19T09:27:01;2.33;;;1.08;;
51467;SDS011;37545;45.302;-122.946;2022-08-19T09:29:30;1.95;;;1.02;;
51467;SDS011;37545;45.302;-122.946;2022-08-19T09:31:59;1.17;;;0.88;;
51467;SDS011;37545;45.302;-122.946;2022-08-19T09:34:27;3.05;;;0.80;;
51467;SDS011;37545;45.302;-122.946;2022-08-19T09:36:56;1.40;;;0.80;;
51467;SDS011;37545;45.302;-122.946;2022-08-19T09:39:27;1.08;;;0.85;;
51467;SDS011;37545;45.302;-122.946;2022-08-19T09:41:56;1.42;;;0.73;;
51467;SDS011;37545;45.302;-122.946;2022-08-19T09:44:24;1.63;;;0.75;;
51467;SDS011;37545;45.302;-122.946;2022-08-19T09:46:53;3.38;;;1.00;;
51467;SDS011;37545;45.302;-122.946;2022-08-19T09:49:21;1.27;;;0.60;;
51467;SDS011;37545;45.302;-122.946;2022-08-19T09:51:50;2.75;;;0.60;;
51467;SDS011;37545;45.302;-122.946;2022-08-19T09:54:21;1.67;;;0.60;;
51467;SDS011;37545;45.302;-122.946;2022-08-19T09:56:52;0.95;;;0.65;;
51467;SDS011;37545;45.302;-122.946;2022-08-19T09:59:21;2.50;;;0.50;;
51467;SDS011;37545;45.302;-122.946;2022-08-19T10:01:49;4.35;;;0.68;;
51467;SDS011;37545;45.302;-122.946;2022-08-19T10:04:18;1.67;;;0.55;;
51467;SDS011;37545;45.302;-122.946;2022-08-19T10:06:48;1.38;;;0.60;;
51467;SDS011;37545;45.302;-122.946;2022-08-19T10:09:17;0.68;;;0.40;;
51467;SDS011;37545;45.302;-122.946;2022-08-19T10:11:46;0.65;;;0.52;;
51467;SDS011;37545;45.302;-122.946;2022-08-19T10:14:17;0.90;;;0.60;;
51467;SDS011;37545;45.302;-122.946;2022-08-19T10:16:47;3.08;;;0.60;;
51467;SDS011;37545;45.302;-122.946;2022-08-19T10:19:17;1.10;;;0.60;;
51467;SDS011;37545;45.302;-122.946;2022-08-19T10:21:45;1.35;;;0.50;;
51467;SDS011;37545;45.302;-122.946;2022-08-19T10:24:14;0.80;;;0.50;;
51467;SDS011;37545;45.302;-122.946;2022-08-19T10:26:45;2.55;;;0.60;;
51467;SDS011;37545;45.302;-122.946;2022-08-19T10:29:14;0.43;;;0.35;;
51467;SDS011;37545;45.302;-122.946;2022-08-19T10:31:44;0.55;;;0.50;;
51467;SDS011;37545;45.302;-122.946;2022-08-19T10:34:13;0.32;;;0.30;;
51467;SDS011;37545;45.302;-122.946;2022-08-19T10:36:43;0.60;;;0.50;;
51467;SDS011;37545;45.302;-122.946;2022-08-19T10:39:11;0.43;;;0.30;;
51467;SDS011;37545;45.302;-122.946;2022-08-19T10:41:40;3.60;;;0.30;;
51467;SDS011;37545;45.302;-122.946;2022-08-19T10:44:10;1.27;;;0.40;;
51467;SDS011;37545;45.302;-122.946;2022-08-19T10:46:41;0.52;;;0.32;;
51467;SDS011;37545;45.302;-122.946;2022-08-19T10:49:12;0.80;;;0.50;;
51467;SDS011;37545;45.302;-122.946;2022-08-19T10:51:41;0.50;;;0.40;;
51467;SDS011;37545;45.302;-122.946;2022-08-19T10:54:26;0.73;;;0.30;;
51467;SDS011;37545;45.302;-122.946;2022-08-19T10:57:08;0.57;;;0.47;;
51467;SDS011;37545;45.302;-122.946;2022-08-19T10:59:37;0.90;;;0.50;;
51467;SDS011;37545;45.302;-122.946;2022-08-19T11:02:07;0.73;;;0.40;;
51467;SDS011;37545;45.302;-122.946;2022-08-19T11:04:37;0.75;;;0.50;;
51467;SDS011;37545;45.302;-122.946;2022-08-19T11:07:07;0.68;;;0.45;;
51467;SDS011;37545;45.302;-122.946;2022-08-19T11:09:37;1.27;;;0.40;;
51467;SDS011;37545;45.302;-122.946;2022-08-19T11:12:09;1.27;;;0.52;;
51467;SDS011;37545;45.302;-122.946;2022-08-19T11:14:39;0.73;;;0.40;;
51467;SDS011;37545;45.302;-122.946;2022-08-19T11:17:09;0.82;;;0.60;;
51467;SDS011;37545;45.302;-122.946;2022-08-19T11:19:39;0.77;;;0.40;;
51467;SDS011;37545;45.302;-122.946;2022-08-19T11:22:08;1.45;;;0.45;;
51467;SDS011;37545;45.302;-122.946;2022-08-19T11:24:36;1.30;;;0.73;;
51467;SDS011;37545;45.302;-122.946;2022-08-19T11:27:06;2.20;;;0.50;;
51467;SDS011;37545;45.302;-122.946;2022-08-19T11:29:38;1.83;;;0.35;;
51467;SDS011;37545;45.302;-122.946;2022-08-19T11:32:09;0.75;;;0.40;;
51467;SDS011;37545;45.302;-122.946;2022-08-19T11:34:40;0.30;;;0.30;;
51467;SDS011;37545;45.302;-122.946;2022-08-19T11:37:08;1.17;;;0.40;;
51467;SDS011;37545;45.302;-122.946;2022-08-19T11:39:37;0.70;;;0.43;;
51467;SDS011;37545;45.302;-122.946;2022-08-19T11:42:06;0.68;;;0.50;;
51467;SDS011;37545;45.302;-122.946;2022-08-19T11:44:48;2.40;;;0.50;;
51467;SDS011;37545;45.302;-122.946;2022-08-19T11:47:18;1.05;;;0.40;;
51467;SDS011;37545;45.302;-122.946;2022-08-19T11:49:47;1.17;;;0.40;;
51467;SDS011;37545;45.302;-122.946;2022-08-19T11:52:15;1.77;;;0.82;;
51467;SDS011;37545;45.302;-122.946;2022-08-19T11:54:44;0.68;;;0.45;;
51467;SDS011;37545;45.302;-122.946;2022-08-19T11:57:12;0.77;;;0.45;;
51467;SDS011;37545;45.302;-122.946;2022-08-19T11:59:42;1.00;;;0.40;;
51467;SDS011;37545;45.302;-122.946;2022-08-19T12:02:16;1.50;;;0.40;;
51467;SDS011;37545;45.302;-122.946;2022-08-19T12:04:47;0.63;;;0.32;;
51467;SDS011;37545;45.302;-122.946;2022-08-19T12:07:15;0.30;;;0.25;;
51467;SDS011;37545;45.302;-122.946;2022-08-19T12:09:44;1.42;;;0.40;;
51467;SDS011;37545;45.302;-122.946;2022-08-19T12:12:13;1.25;;;0.40;;
51467;SDS011;37545;45.302;-122.946;2022-08-19T12:14:41;0.63;;;0.30;;
51467;SDS011;37545;45.302;-122.946;2022-08-19T12:17:10;1.55;;;0.30;;
51467;SDS011;37545;45.302;-122.946;2022-08-19T12:19:40;0.32;;;0.28;;
51467;SDS011;37545;45.302;-122.946;2022-08-19T12:22:09;0.82;;;0.40;;
51467;SDS011;37545;45.302;-122.946;2022-08-19T12:24:37;3.80;;;0.50;;
51467;SDS011;37545;45.302;-122.946;2022-08-19T12:27:06;0.55;;;0.40;;
51467;SDS011;37545;45.302;-122.946;2022-08-19T12:29:34;1.05;;;0.32;;
51467;SDS011;37545;45.302;-122.946;2022-08-19T12:32:03;0.50;;;0.40;;
51467;SDS011;37545;45.302;-122.946;2022-08-19T12:34:40;0.88;;;0.22;;
51467;SDS011;37545;45.302;-122.946;2022-08-19T12:37:08;1.10;;;0.30;;
51467;SDS011;37545;45.302;-122.946;2022-08-19T12:39:38;0.75;;;0.40;;
51467;SDS011;37545;45.302;-122.946;2022-08-19T12:42:08;0.68;;;0.50;;
51467;SDS011;37545;45.302;-122.946;2022-08-19T12:44:37;1.75;;;0.40;;
51467;SDS011;37545;45.302;-122.946;2022-08-19T12:47:08;0.28;;;0.22;;
51467;SDS011;37545;45.302;-122.946;2022-08-19T12:49:37;0.93;;;0.30;;
51467;SDS011;37545;45.302;-122.946;2022-08-19T12:52:10;0.32;;;0.30;;
51467;SDS011;37545;45.302;-122.946;2022-08-19T12:54:40;0.47;;;0.30;;
51467;SDS011;37545;45.302;-122.946;2022-08-19T12:57:10;0.28;;;0.20;;
51467;SDS011;37545;45.302;-122.946;2022-08-19T12:59:39;0.98;;;0.40;;
51467;SDS011;37545;45.302;-122.946;2022-08-19T13:02:08;0.43;;;0.28;;
51467;SDS011;37545;45.302;-122.946;2022-08-19T13:04:37;0.68;;;0.40;;
51467;SDS011;37545;45.302;-122.946;2022-08-19T13:07:08;0.30;;;0.30;;
51467;SDS011;37545;45.302;-122.946;2022-08-19T13:09:37;0.95;;;0.38;;
51467;SDS011;37545;45.302;-122.946;2022-08-19T13:12:06;1.63;;;0.38;;
51467;SDS011;37545;45.302;-122.946;2022-08-19T13:14:38;1.13;;;0.20;;
51467;SDS011;37545;45.302;-122.946;2022-08-19T13:17:07;0.30;;;0.10;;
51467;SDS011;37545;45.302;-122.946;2022-08-19T13:19:37;0.35;;;0.20;;
51467;SDS011;37545;45.302;-122.946;2022-08-19T13:22:05;0.32;;;0.20;;
51467;SDS011;37545;45.302;-122.946;2022-08-19T13:24:35;0.30;;;0.20;;
51467;SDS011;37545;45.302;-122.946;2022-08-19T13:27:04;0.60;;;0.30;;
51467;SDS011;37545;45.302;-122.946;2022-08-19T13:29:33;0.73;;;0.30;;
51467;SDS011;37545;45.302;-122.946;2022-08-19T13:32:18;2.58;;;0.30;;
51467;SDS011;37545;45.302;-122.946;2022-08-19T13:35:04;0.22;;;0.22;;
51467;SDS011;37545;45.302;-122.946;2022-08-19T13:37:35;0.75;;;0.20;;
51467;SDS011;37545;45.302;-122.946;2022-08-19T13:40:10;0.40;;;0.20;;
51467;SDS011;37545;45.302;-122.946;2022-08-19T13:42:42;0.50;;;0.20;;
51467;SDS011;37545;45.302;-122.946;2022-08-19T13:45:13;0.28;;;0.20;;
51467;SDS011;37545;45.302;-122.946;2022-08-19T13:47:45;0.20;;;0.20;;
51467;SDS011;37545;45.302;-122.946;2022-08-19T13:50:14;0.95;;;0.20;;
51467;SDS011;37545;45.302;-122.946;2022-08-19T13:52:47;0.33;;;0.20;;
51467;SDS011;37545;45.302;-122.946;2022-08-19T13:55:16;1.08;;;0.10;;
51467;SDS011;37545;45.302;-122.946;2022-08-19T13:57:45;0.77;;;0.50;;
51467;SDS011;37545;45.302;-122.946;2022-08-19T14:00:17;1.75;;;0.35;;
51467;SDS011;37545;45.302;-122.946;2022-08-19T14:02:48;0.90;;;0.38;;
51467;SDS011;37545;45.302;-122.946;2022-08-19T14:05:19;0.60;;;0.30;;
51467;SDS011;37545;45.302;-122.946;2022-08-19T14:07:50;1.40;;;0.20;;
51467;SDS011;37545;45.302;-122.946;2022-08-19T14:10:26;1.13;;;0.10;;
51467;SDS011;37545;45.302;-122.946;2022-08-19T14:12:58;0.40;;;0.20;;
51467;SDS011;37545;45.302;-122.946;2022-08-19T14:15:28;1.30;;;0.40;;
51467;SDS011;37545;45.302;-122.946;2022-08-19T14:17:58;1.25;;;0.20;;
51467;SDS011;37545;45.302;-122.946;2022-08-19T14:20:26;0.50;;;0.30;;
51467;SDS011;37545;45.302;-122.946;2022-08-19T14:22:56;1.95;;;0.30;;
51467;SDS011;37545;45.302;-122.946;2022-08-19T14:25:26;0.50;;;0.28;;
51467;SDS011;37545;45.302;-122.946;2022-08-19T14:27:56;0.47;;;0.20;;
51467;SDS011;37545;45.302;-122.946;2022-08-19T14:30:26;0.00;;;0.00;;